Time;durP1;ratioP1;P1;durP2;ratioP2;P2;SDS_P1;SDS_P2;PMS_P1;PMS_P2;Temp;Humidity;BMP_temperature;BMP_pressure;BME280_temperature;BME280_humidity;BME280_pressure;Samples;Min_cycle;Max_cycle;Signal;HPM_P1;HPM_P2
2023/12/23 00:00:19;;;;;;;13.10;4.05;;;-0.20;99.90;;;;;;5082540;28;20212;-83
2023/12/23 00:02:46;;;;;;;14.48;4.28;;;-0.30;99.90;;;;;;5049268;28;20542;-83
2023/12/23 00:05:14;;;;;;;16.67;5.45;;;-0.30;99.90;;;;;;5048820;28;20240;-83
2023/12/23 00:07:42;;;;;;;16.35;4.20;;;-0.40;99.90;;;;;;5050508;28;20181;-84
2023/12/23 00:10:09;;;;;;;11.18;4.05;;;-0.30;99.90;;;;;;5049323;28;20189;-83
2023/12/23 00:12:37;;;;;;;13.43;4.07;;;-0.20;99.90;;;;;;5050267;28;20639;-83
2023/12/23 00:15:05;;;;;;;15.98;4.93;;;-0.30;99.90;;;;;;5050220;28;20204;-84
2023/12/23 00:17:32;;;;;;;17.50;4.47;;;-0.30;99.90;;;;;;5048685;28;20967;-84
2023/12/23 00:20:00;;;;;;;13.48;4.38;;;-0.30;99.90;;;;;;5050047;28;20188;-84
2023/12/23 00:22:28;;;;;;;14.30;4.97;;;-0.30;99.90;;;;;;5049918;28;20181;-83
2023/12/23 00:24:56;;;;;;;9.88;4.00;;;-0.30;99.90;;;;;;5048428;28;20717;-82
2023/12/23 00:27:23;;;;;;;15.43;4.30;;;-0.40;99.90;;;;;;5049734;28;20178;-84
2023/12/23 00:29:51;;;;;;;13.93;4.97;;;-0.40;99.90;;;;;;5049745;28;20215;-83
2023/12/23 00:32:18;;;;;;;13.52;4.60;;;-0.40;99.90;;;;;;5049830;28;20185;-84
2023/12/23 00:34:46;;;;;;;15.02;4.45;;;-0.40;99.90;;;;;;5048546;28;20189;-85
2023/12/23 00:37:13;;;;;;;13.65;4.43;;;-0.30;99.90;;;;;;5049921;28;20186;-84
2023/12/23 00:39:41;;;;;;;14.25;4.00;;;-0.40;99.90;;;;;;5049560;28;20251;-82
2023/12/23 00:42:09;;;;;;;19.40;4.53;;;-0.40;99.90;;;;;;5048131;28;20199;-83
2023/12/23 00:44:38;;;;;;;15.40;4.85;;;-0.30;99.90;;;;;;5047978;28;20259;-83
2023/12/23 00:47:06;;;;;;;14.30;4.00;;;-0.40;99.90;;;;;;5049416;28;20185;-83
2023/12/23 00:49:33;;;;;;;15.18;4.30;;;-0.30;99.90;;;;;;5049361;28;20251;-84
2023/12/23 00:52:01;;;;;;;14.43;4.63;;;-0.30;99.90;;;;;;5049568;28;20311;-84
2023/12/23 00:54:28;;;;;;;12.25;3.90;;;-0.30;99.90;;;;;;5048420;28;20216;-83
2023/12/23 00:56:57;;;;;;;17.27;4.28;;;-0.30;99.90;;;;;;5049551;28;20200;-84
2023/12/23 00:59:24;;;;;;;13.95;4.13;;;-0.30;99.90;;;;;;5048099;28;20227;-84
2023/12/23 01:01:51;;;;;;;13.90;3.88;;;-0.40;99.90;;;;;;5047895;28;20251;-83
2023/12/23 01:04:19;;;;;;;21.27;4.22;;;-0.40;99.90;;;;;;5049125;28;20225;-83
2023/12/23 01:06:47;;;;;;;11.80;4.03;;;-0.40;99.90;;;;;;5049562;28;20185;-83
2023/12/23 01:09:15;;;;;;;13.48;4.05;;;-0.40;99.90;;;;;;5047769;28;20193;-83
2023/12/23 01:11:42;;;;;;;11.73;3.92;;;-0.30;99.90;;;;;;5047930;28;20189;-83
2023/12/23 01:14:10;;;;;;;14.13;3.70;;;-0.30;99.90;;;;;;5056231;28;20587;-84
2023/12/23 01:16:37;;;;;;;15.50;3.70;;;-0.30;99.90;;;;;;5061421;28;20658;-83
2023/12/23 01:19:05;;;;;;;9.60;3.90;;;-0.30;99.90;;;;;;5048966;28;20679;-84
2023/12/23 01:21:33;;;;;;;11.32;4.15;;;-0.30;99.90;;;;;;5061730;28;20215;-83
2023/12/23 01:24:00;;;;;;;9.25;3.28;;;-0.30;99.90;;;;;;5051548;28;20205;-83
2023/12/23 01:26:28;;;;;;;15.23;3.85;;;-0.30;99.90;;;;;;5048990;28;20772;-83
2023/12/23 01:29:00;;;;;;;15.13;3.67;;;-0.40;99.90;;;;;;5064488;28;20218;-83
2023/12/23 01:31:28;;;;;;;14.52;3.65;;;-0.30;99.90;;;;;;5060144;28;20212;-84
2023/12/23 01:33:55;;;;;;;15.18;4.00;;;-0.40;99.90;;;;;;5068214;28;20196;-83
2023/12/23 01:36:23;;;;;;;19.70;4.07;;;-0.40;99.90;;;;;;5069808;28;20190;-84
2023/12/23 01:38:51;;;;;;;13.15;4.05;;;-0.30;99.90;;;;;;5069376;28;20703;-83
2023/12/23 01:41:18;;;;;;;15.18;4.15;;;-0.30;99.90;;;;;;5067886;28;20219;-83
2023/12/23 01:43:46;;;;;;;16.65;4.30;;;-0.40;99.90;;;;;;5067863;28;20212;-84
2023/12/23 01:46:14;;;;;;;17.60;4.00;;;-0.30;99.90;;;;;;5067705;28;20193;-84
2023/12/23 01:48:44;;;;;;;12.48;3.63;;;-0.40;99.90;;;;;;5067455;28;20191;-83
2023/12/23 01:51:14;;;;;;;12.80;4.50;;;-0.40;99.90;;;;;;5068728;28;20169;-83
2023/12/23 01:53:42;;;;;;;10.70;4.10;;;-0.40;99.90;;;;;;5067429;28;20654;-84
2023/12/23 01:56:11;;;;;;;12.43;4.15;;;-0.40;99.90;;;;;;5067815;28;20600;-83
2023/12/23 01:58:39;;;;;;;12.75;4.47;;;-0.40;99.90;;;;;;5067796;28;20185;-83
2023/12/23 02:01:07;;;;;;;17.17;4.57;;;-0.40;99.90;;;;;;5067602;28;20185;-83
2023/12/23 02:03:34;;;;;;;10.48;3.65;;;-0.40;99.90;;;;;;5067557;28;20191;-83
2023/12/23 02:06:02;;;;;;;10.18;3.95;;;-0.30;99.90;;;;;;5067291;28;20215;-83
2023/12/23 02:08:30;;;;;;;10.82;3.83;;;-0.30;99.90;;;;;;5067442;28;20652;-83
2023/12/23 02:11:05;;;;;;;12.90;4.63;;;-0.40;99.90;;;;;;5067169;28;20646;-85
2023/12/23 02:13:46;;;;;;;12.55;4.22;;;-0.40;99.90;;;;;;5101319;28;20188;-84
2023/12/23 02:16:14;;;;;;;10.43;3.53;;;-0.40;99.90;;;;;;5067544;28;20200;-83
2023/12/23 02:18:41;;;;;;;15.10;4.68;;;-0.30;99.90;;;;;;5068938;28;20181;-84
2023/12/23 02:21:09;;;;;;;12.60;3.90;;;-0.40;99.90;;;;;;5068824;28;20521;-83
2023/12/23 02:23:36;;;;;;;12.82;3.90;;;-0.40;99.90;;;;;;5066999;28;20663;-83
2023/12/23 02:26:08;;;;;;;16.73;4.50;;;-0.40;99.90;;;;;;5067159;28;20191;-83
2023/12/23 02:28:38;;;;;;;12.30;4.35;;;-0.30;99.90;;;;;;5052527;28;20238;-83
2023/12/23 02:31:08;;;;;;;13.32;4.13;;;-0.20;99.90;;;;;;5072024;28;20271;-83
2023/12/23 02:33:36;;;;;;;18.98;4.30;;;-0.30;99.90;;;;;;5070867;28;20176;-83
2023/12/23 02:36:04;;;;;;;15.75;4.18;;;-0.40;99.90;;;;;;5071844;28;20196;-84
2023/12/23 02:38:32;;;;;;;9.80;3.97;;;-0.40;99.90;;;;;;5072268;28;20220;-83
2023/12/23 02:40:59;;;;;;;18.42;5.22;;;-0.40;99.90;;;;;;5060516;28;20197;-84
2023/12/23 02:43:27;;;;;;;13.73;4.25;;;-0.40;99.90;;;;;;5050803;28;20193;-84
2023/12/23 02:45:54;;;;;;;12.95;4.85;;;-0.40;99.90;;;;;;5051898;28;21034;-83
2023/12/23 02:48:21;;;;;;;15.48;4.30;;;-0.30;99.90;;;;;;5084101;28;20660;-83
2023/12/23 02:50:49;;;;;;;16.83;3.95;;;-0.40;99.90;;;;;;5050504;28;20264;-84
2023/12/23 02:53:16;;;;;;;13.23;4.47;;;-0.30;99.90;;;;;;5050392;28;20720;-83
2023/12/23 02:55:44;;;;;;;15.93;4.88;;;-0.40;99.90;;;;;;5051731;28;20209;-83
2023/12/23 02:58:11;;;;;;;13.95;4.50;;;-0.40;99.90;;;;;;5050174;28;20220;-84
2023/12/23 03:00:39;;;;;;;17.23;4.32;;;-0.30;99.90;;;;;;5050320;28;20185;-84
2023/12/23 03:03:06;;;;;;;10.48;4.03;;;-0.30;99.90;;;;;;5033583;28;20243;-82
2023/12/23 03:05:34;;;;;;;16.00;4.47;;;-0.30;99.90;;;;;;5051507;28;20327;-83
2023/12/23 03:08:02;;;;;;;11.82;4.72;;;-0.40;99.90;;;;;;5051657;28;20181;-84
2023/12/23 03:10:32;;;;;;;16.48;4.90;;;-0.40;99.90;;;;;;5051588;28;20177;-84
2023/12/23 03:12:59;;;;;;;12.55;4.53;;;-0.40;99.90;;;;;;5050227;28;20189;-84
2023/12/23 03:15:27;;;;;;;15.90;4.53;;;-0.40;99.90;;;;;;5050666;28;20205;-84
2023/12/23 03:17:54;;;;;;;12.52;4.78;;;-0.40;99.90;;;;;;5065341;28;20196;-84
2023/12/23 03:20:23;;;;;;;16.75;5.45;;;-0.40;99.90;;;;;;5069858;28;20192;-83
2023/12/23 03:22:50;;;;;;;12.57;4.97;;;-0.40;99.90;;;;;;5070950;28;20192;-84
2023/12/23 03:25:18;;;;;;;18.45;5.07;;;-0.30;99.90;;;;;;5069552;28;20212;-83
2023/12/23 03:27:46;;;;;;;11.57;4.35;;;-0.40;99.90;;;;;;5071019;28;20234;-83
2023/12/23 03:30:13;;;;;;;18.15;5.10;;;-0.30;99.90;;;;;;5070853;28;20706;-84
2023/12/23 03:32:41;;;;;;;14.27;4.38;;;-0.30;99.90;;;;;;5070943;28;20706;-82
2023/12/23 03:35:09;;;;;;;20.40;5.78;;;-0.40;99.90;;;;;;5069625;28;20253;-85
2023/12/23 03:37:36;;;;;;;12.55;4.70;;;-0.40;99.90;;;;;;5069278;28;20287;-83
2023/12/23 03:40:07;;;;;;;15.30;4.93;;;-0.50;99.90;;;;;;5068627;28;20315;-84
2023/12/23 03:42:35;;;;;;;14.63;4.53;;;-0.50;99.90;;;;;;5069261;28;20238;-84
2023/12/23 03:45:02;;;;;;;15.52;5.20;;;-0.40;99.90;;;;;;5069532;28;20845;-83
2023/12/23 03:47:30;;;;;;;18.60;4.97;;;-0.40;99.90;;;;;;5070914;28;20181;-83
2023/12/23 03:49:57;;;;;;;17.48;4.72;;;-0.50;99.90;;;;;;5068779;28;20204;-84
2023/12/23 03:52:25;;;;;;;12.32;4.78;;;-0.50;99.90;;;;;;5053822;28;20208;-84
2023/12/23 03:54:52;;;;;;;12.05;4.50;;;-0.40;99.90;;;;;;5050672;28;20189;-82
2023/12/23 03:57:21;;;;;;;13.63;4.60;;;-0.40;99.90;;;;;;5050603;28;20235;-82
2023/12/23 03:59:48;;;;;;;18.33;5.05;;;-0.40;99.90;;;;;;5050391;28;20228;-83
2023/12/23 04:02:15;;;;;;;13.48;4.63;;;-0.40;99.90;;;;;;5050519;28;20196;-83
2023/12/23 04:04:43;;;;;;;15.45;5.07;;;-0.40;99.90;;;;;;5066337;28;20302;-84
2023/12/23 04:07:12;;;;;;;14.52;5.35;;;-0.40;99.90;;;;;;5069158;28;20199;-84
2023/12/23 04:09:40;;;;;;;14.30;4.35;;;-0.40;99.90;;;;;;5068447;28;20246;-83
2023/12/23 04:12:10;;;;;;;14.27;5.03;;;-0.40;99.90;;;;;;5069773;28;20180;-84
2023/12/23 04:14:40;;;;;;;13.48;5.43;;;-0.40;99.90;;;;;;5068139;28;20279;-84
2023/12/23 04:17:07;;;;;;;13.48;4.70;;;-0.50;99.90;;;;;;5068353;28;20219;-83
2023/12/23 04:19:36;;;;;;;14.43;5.50;;;-0.40;99.90;;;;;;5068173;28;20199;-83
2023/12/23 04:22:03;;;;;;;16.58;5.28;;;-0.50;99.90;;;;;;5066865;28;20192;-83
2023/12/23 04:24:31;;;;;;;20.05;6.10;;;-0.50;99.90;;;;;;5049817;28;20209;-84
2023/12/23 04:26:59;;;;;;;14.63;5.47;;;-0.50;99.90;;;;;;5051345;28;20269;-84
2023/12/23 04:29:26;;;;;;;13.73;4.78;;;-0.50;99.90;;;;;;5088368;28;20612;-84
2023/12/23 04:31:54;;;;;;;15.73;5.10;;;-0.50;99.90;;;;;;5048897;28;20276;-84
2023/12/23 04:34:21;;;;;;;14.20;4.88;;;-0.50;99.90;;;;;;5050388;28;20243;-84
2023/12/23 04:36:49;;;;;;;15.00;5.30;;;-0.50;99.90;;;;;;5067583;28;20185;-83
2023/12/23 04:39:16;;;;;;;13.70;5.00;;;-0.50;99.90;;;;;;5055503;28;20232;-83
2023/12/23 04:41:46;;;;;;;15.07;5.20;;;-0.50;99.90;;;;;;5050913;28;20181;-85
2023/12/23 04:44:16;;;;;;;14.38;5.50;;;-0.50;99.90;;;;;;5048365;28;20736;-84
2023/12/23 04:46:46;;;;;;;17.52;6.13;;;-0.50;99.90;;;;;;5049681;28;20185;-83
2023/12/23 04:49:14;;;;;;;12.73;5.00;;;-0.50;99.90;;;;;;5064573;28;20616;-83
2023/12/23 04:51:44;;;;;;;13.85;4.88;;;-0.50;99.90;;;;;;5081517;28;20197;-84
2023/12/23 04:54:13;;;;;;;11.55;5.10;;;-0.50;99.90;;;;;;5049576;28;20185;-82
2023/12/23 04:56:40;;;;;;;13.13;5.22;;;-0.50;99.90;;;;;;5048076;28;20197;-82
2023/12/23 04:59:08;;;;;;;10.57;4.90;;;-0.40;99.90;;;;;;5048095;28;20268;-83
2023/12/23 05:01:36;;;;;;;15.10;5.97;;;-0.50;99.90;;;;;;5048205;28;20557;-82
2023/12/23 05:04:04;;;;;;;11.40;5.25;;;-0.50;99.90;;;;;;5049611;28;20181;-84
2023/12/23 05:06:31;;;;;;;12.07;4.80;;;-0.50;99.90;;;;;;5065074;28;20207;-84
2023/12/23 05:08:59;;;;;;;12.25;5.30;;;-0.40;99.90;;;;;;5069091;28;20598;-84
2023/12/23 05:11:26;;;;;;;8.50;4.50;;;-0.50;99.90;;;;;;5067384;28;20226;-82
2023/12/23 05:13:54;;;;;;;8.85;4.28;;;-0.50;99.90;;;;;;5069323;28;20822;-84
2023/12/23 05:16:21;;;;;;;11.90;5.00;;;-0.50;99.90;;;;;;5069420;28;20794;-83
2023/12/23 05:18:49;;;;;;;13.35;4.82;;;-0.60;99.90;;;;;;5067668;28;20292;-83
2023/12/23 05:21:16;;;;;;;10.65;4.95;;;-0.50;99.90;;;;;;5069282;28;20188;-82
2023/12/23 05:23:44;;;;;;;13.27;5.53;;;-0.50;99.90;;;;;;5067710;28;20686;-83
2023/12/23 05:26:16;;;;;;;9.75;4.70;;;-0.50;99.90;;;;;;5067464;28;20208;-84
2023/12/23 05:28:43;;;;;;;9.98;4.60;;;-0.60;99.90;;;;;;5067607;28;20279;-84
2023/12/23 05:31:11;;;;;;;15.95;5.72;;;-0.50;99.90;;;;;;5069189;28;20238;-83
2023/12/23 05:33:38;;;;;;;8.55;4.20;;;-0.50;99.90;;;;;;5068019;28;20177;-83
2023/12/23 05:36:06;;;;;;;13.77;5.00;;;-0.50;99.90;;;;;;5069042;28;20189;-83
2023/12/23 05:38:34;;;;;;;14.98;4.85;;;-0.50;99.90;;;;;;5068859;28;20220;-84
2023/12/23 05:41:01;;;;;;;13.80;5.28;;;-0.50;99.90;;;;;;5067913;28;20211;-83
2023/12/23 05:43:29;;;;;;;10.50;4.38;;;-0.60;99.90;;;;;;5068863;28;20218;-83
2023/12/23 05:45:56;;;;;;;10.88;4.78;;;-0.60;99.90;;;;;;5068815;28;20261;-82
2023/12/23 05:48:24;;;;;;;10.30;4.57;;;-0.60;99.90;;;;;;5068919;28;20185;-84
2023/12/23 05:50:52;;;;;;;12.23;5.45;;;-0.60;99.90;;;;;;5068895;28;20675;-83
2023/12/23 05:53:19;;;;;;;10.70;4.97;;;-0.50;99.90;;;;;;5069030;28;20208;-82
2023/12/23 05:55:47;;;;;;;10.88;4.70;;;-0.50;99.90;;;;;;5068917;28;20184;-83
2023/12/23 05:58:14;;;;;;;12.05;5.00;;;-0.60;99.90;;;;;;5068852;28;20180;-82
2023/12/23 06:00:42;;;;;;;10.05;4.28;;;-0.50;99.90;;;;;;5068771;28;20189;-83
2023/12/23 06:03:10;;;;;;;11.30;4.32;;;-0.60;99.90;;;;;;5068378;28;20184;-83
2023/12/23 06:05:37;;;;;;;13.02;4.97;;;-0.50;99.90;;;;;;5072645;28;20200;-83
2023/12/23 06:08:06;;;;;;;10.48;4.78;;;-0.50;99.90;;;;;;5072456;28;20569;-83
2023/12/23 06:10:33;;;;;;;8.60;4.43;;;-0.50;99.90;;;;;;5072684;28;20263;-82
2023/12/23 06:13:20;;;;;;;10.20;4.60;;;-0.50;99.90;;;;;;5072882;28;20181;-83
2023/12/23 06:15:48;;;;;;;9.00;4.18;;;-0.50;99.90;;;;;;5069030;28;20207;-84
2023/12/23 06:18:15;;;;;;;11.00;4.90;;;-0.60;99.90;;;;;;5052366;28;20188;-83
2023/12/23 06:20:43;;;;;;;12.23;4.93;;;-0.60;99.90;;;;;;5051021;28;20193;-84
2023/12/23 06:23:10;;;;;;;12.23;3.75;;;-0.50;99.90;;;;;;5052306;28;20215;-83
2023/12/23 06:25:38;;;;;;;10.88;4.38;;;-0.50;99.90;;;;;;5050814;28;20244;-83
2023/12/23 06:28:05;;;;;;;12.13;4.78;;;-0.40;99.90;;;;;;5067295;28;20521;-82
2023/12/23 06:30:33;;;;;;;9.07;4.40;;;-0.50;99.90;;;;;;5051622;28;20258;-81
2023/12/23 06:33:00;;;;;;;11.18;4.60;;;-0.60;99.90;;;;;;5052251;28;20184;-83
2023/12/23 06:35:28;;;;;;;12.68;4.65;;;-0.60;99.90;;;;;;5052335;28;20240;-83
2023/12/23 06:37:55;;;;;;;11.02;5.25;;;-0.50;99.90;;;;;;5051765;28;20201;-83
2023/12/23 06:40:23;;;;;;;11.05;4.93;;;-0.50;99.90;;;;;;5052173;28;20616;-83
2023/12/23 06:42:50;;;;;;;10.60;4.57;;;-0.50;99.90;;;;;;5051882;28;20190;-83
2023/12/23 06:45:18;;;;;;;8.20;4.70;;;-0.50;99.90;;;;;;5051910;28;20204;-83
2023/12/23 06:47:46;;;;;;;10.70;4.45;;;-0.60;99.90;;;;;;5050330;28;20193;-82
2023/12/23 06:50:14;;;;;;;13.02;5.45;;;-0.50;99.90;;;;;;5063183;28;20181;-84
2023/12/23 06:52:42;;;;;;;9.15;4.18;;;-0.50;99.90;;;;;;5072407;28;20195;-83
2023/12/23 06:55:09;;;;;;;11.30;4.90;;;-0.40;99.90;;;;;;5071824;28;20262;-83
2023/12/23 06:57:37;;;;;;;11.05;4.68;;;-0.40;99.90;;;;;;5072033;28;20177;-83
2023/12/23 07:00:07;;;;;;;9.82;5.07;;;-0.50;99.90;;;;;;5071834;28;20258;-84
2023/12/23 07:02:34;;;;;;;11.00;4.90;;;-0.50;99.90;;;;;;5071699;28;20176;-84
2023/12/23 07:05:03;;;;;;;10.32;4.57;;;-0.50;99.90;;;;;;5062493;28;20259;-83
2023/12/23 07:07:32;;;;;;;9.85;4.20;;;-0.50;99.90;;;;;;5068535;28;20185;-83
2023/12/23 07:10:00;;;;;;;12.57;5.10;;;-0.60;99.90;;;;;;5071251;28;20189;-83
2023/12/23 07:12:33;;;;;;;11.15;4.90;;;-0.50;99.90;;;;;;5068784;28;20181;-83
2023/12/23 07:15:03;;;;;;;10.73;4.60;;;-0.50;99.90;;;;;;5070443;28;20726;-84
2023/12/23 07:17:30;;;;;;;11.90;4.80;;;-0.40;99.90;;;;;;5071373;28;20185;-82
2023/12/23 07:20:09;;;;;;;8.48;4.40;;;-0.50;99.90;;;;;;5070441;28;20193;-84
2023/12/23 07:22:37;;;;;;;15.85;5.72;;;-0.50;99.90;;;;;;5071931;28;20255;-83
2023/12/23 07:25:05;;;;;;;10.13;4.40;;;-0.50;99.90;;;;;;5071411;28;20609;-84
2023/12/23 07:27:32;;;;;;;12.55;4.97;;;-0.40;99.90;;;;;;5071479;28;20184;-83
2023/12/23 07:30:00;;;;;;;10.07;3.90;;;-0.50;99.90;;;;;;5071301;28;20581;-83
2023/12/23 07:32:27;;;;;;;13.00;5.15;;;-0.50;99.90;;;;;;5071533;28;20373;-83
2023/12/23 07:34:55;;;;;;;7.97;4.40;;;-0.50;99.90;;;;;;5071368;28;20184;-84
2023/12/23 07:37:23;;;;;;;7.90;4.53;;;-0.60;99.90;;;;;;5053520;28;20196;-84
2023/12/23 07:39:50;;;;;;;10.93;4.63;;;-0.60;99.90;;;;;;5070519;28;20758;-83
2023/12/23 07:42:18;;;;;;;11.10;5.00;;;-0.60;99.90;;;;;;5071733;28;20203;-84
2023/12/23 07:44:45;;;;;;;8.70;4.05;;;-0.50;99.90;;;;;;5071025;28;20192;-83
2023/12/23 07:47:13;;;;;;;9.88;4.10;;;-0.50;99.90;;;;;;5067935;28;20217;-84
2023/12/23 07:49:40;;;;;;;10.38;4.38;;;-0.50;99.90;;;;;;5053664;28;20181;-84
2023/12/23 07:52:08;;;;;;;7.43;3.95;;;-0.50;99.90;;;;;;5061590;28;20561;-82
2023/12/23 07:54:36;;;;;;;10.10;4.38;;;-0.50;99.90;;;;;;5063719;28;20185;-83
2023/12/23 07:57:04;;;;;;;10.40;4.45;;;-0.40;99.90;;;;;;5059239;28;20283;-84
2023/12/23 07:59:31;;;;;;;11.13;4.38;;;-0.40;99.90;;;;;;5060084;28;20197;-84
2023/12/23 08:01:59;;;;;;;8.25;4.28;;;-0.30;99.90;;;;;;5054133;28;20196;-84
2023/12/23 08:04:26;;;;;;;9.75;4.07;;;-0.30;99.90;;;;;;5050378;28;20205;-82
2023/12/23 08:06:54;;;;;;;8.02;4.07;;;-0.30;99.90;;;;;;5052202;28;20203;-84
2023/12/23 08:09:21;;;;;;;10.95;3.92;;;-0.30;99.90;;;;;;5050930;28;20995;-83
2023/12/23 08:11:49;;;;;;;12.32;4.95;;;-0.40;99.90;;;;;;5065887;28;20216;-83
2023/12/23 08:14:17;;;;;;;8.10;3.88;;;-0.30;99.90;;;;;;5064310;28;20188;-84
2023/12/23 08:16:44;;;;;;;11.10;4.47;;;-0.40;99.90;;;;;;5066791;28;20245;-84
2023/12/23 08:19:12;;;;;;;8.57;4.50;;;-0.30;99.90;;;;;;5066508;28;20200;-84
2023/12/23 08:21:40;;;;;;;9.02;3.88;;;-0.40;99.90;;;;;;5057297;28;20831;-85
2023/12/23 08:24:08;;;;;;;11.27;3.83;;;-0.40;99.90;;;;;;5051834;28;20276;-84
2023/12/23 08:26:35;;;;;;;9.70;4.15;;;-0.40;99.90;;;;;;5061053;28;20302;-84
2023/12/23 08:29:03;;;;;;;6.63;3.92;;;-0.30;99.90;;;;;;5054774;28;20209;-85
2023/12/23 08:31:30;;;;;;;7.85;3.78;;;-0.30;99.90;;;;;;5058205;28;20211;-84
2023/12/23 08:33:59;;;;;;;10.13;4.22;;;-0.30;99.90;;;;;;5066985;28;20200;-83
2023/12/23 08:36:29;;;;;;;6.53;3.65;;;-0.30;99.90;;;;;;5073257;28;20199;-83
2023/12/23 08:38:57;;;;;;;9.85;3.80;;;-0.30;99.90;;;;;;5060351;28;20280;-84
2023/12/23 08:41:25;;;;;;;7.10;4.30;;;-0.30;99.90;;;;;;5056811;28;20601;-84
2023/12/23 08:43:52;;;;;;;8.30;3.90;;;-0.20;99.90;;;;;;5058663;28;20909;-84
2023/12/23 08:46:20;;;;;;;9.60;3.72;;;-0.20;99.90;;;;;;5057522;28;20231;-84
2023/12/23 08:48:47;;;;;;;9.18;3.67;;;-0.30;99.90;;;;;;5054890;28;20268;-85
2023/12/23 08:51:15;;;;;;;8.95;3.78;;;-0.30;99.90;;;;;;5060559;28;20224;-84
2023/12/23 08:53:48;;;;;;;8.73;4.07;;;-0.30;99.90;;;;;;5066468;28;20568;-84
2023/12/23 08:56:17;;;;;;;7.18;3.58;;;-0.30;99.90;;;;;;5053599;28;20223;-84
2023/12/23 08:58:45;;;;;;;9.07;4.35;;;-0.20;99.90;;;;;;5059337;28;20192;-83
2023/12/23 09:01:13;;;;;;;8.13;4.55;;;-0.30;99.90;;;;;;5063062;28;20196;-84
2023/12/23 09:03:42;;;;;;;10.48;4.95;;;-0.30;99.90;;;;;;5060886;28;20189;-85
2023/12/23 09:06:13;;;;;;;12.20;5.03;;;-0.30;99.90;;;;;;5054645;28;20204;-84
2023/12/23 09:08:44;;;;;;;11.55;5.10;;;-0.30;99.90;;;;;;5061471;28;20180;-85
2023/12/23 09:11:13;;;;;;;8.35;4.40;;;-0.30;99.90;;;;;;5063647;28;20303;-84
2023/12/23 09:13:40;;;;;;;8.82;4.40;;;-0.30;99.90;;;;;;5056744;28;20191;-83
2023/12/23 09:16:08;;;;;;;10.50;4.53;;;-0.30;99.90;;;;;;5053987;28;20270;-85
2023/12/23 09:18:35;;;;;;;8.55;4.72;;;-0.20;99.90;;;;;;5054958;28;20223;-86
2023/12/23 09:21:03;;;;;;;8.25;4.32;;;-0.30;99.90;;;;;;5057974;28;20667;-82
2023/12/23 09:23:30;;;;;;;7.82;4.80;;;-0.20;99.90;;;;;;5055081;28;20188;-85
2023/12/23 09:25:58;;;;;;;9.50;3.85;;;-0.20;99.90;;;;;;5064496;28;20221;-85
2023/12/23 09:28:25;;;;;;;7.75;4.60;;;-0.20;99.90;;;;;;5062715;28;20195;-83
2023/12/23 09:30:53;;;;;;;8.75;4.50;;;-0.20;99.90;;;;;;5057358;28;20224;-83
2023/12/23 09:33:20;;;;;;;6.78;4.18;;;-0.20;99.90;;;;;;5056174;28;20267;-84
2023/12/23 09:35:48;;;;;;;9.18;4.50;;;-0.20;99.90;;;;;;5063999;28;20200;-86
2023/12/23 09:38:15;;;;;;;9.63;4.40;;;-0.20;99.90;;;;;;5067524;28;20290;-86
2023/12/23 09:40:43;;;;;;;9.35;4.85;;;-0.10;99.90;;;;;;5062242;28;20196;-82
2023/12/23 09:43:12;;;;;;;9.52;4.47;;;-0.10;99.90;;;;;;5066740;28;20193;-83
2023/12/23 09:45:41;;;;;;;7.30;4.55;;;-0.10;99.90;;;;;;5057660;28;20181;-83
2023/12/23 09:48:09;;;;;;;10.45;4.32;;;-0.20;99.90;;;;;;5058672;28;20208;-85
2023/12/23 09:50:37;;;;;;;6.88;3.78;;;-0.20;99.90;;;;;;5060523;28;20180;-83
2023/12/23 09:53:07;;;;;;;8.93;4.13;;;-0.20;99.90;;;;;;5061281;28;20184;-81
2023/12/23 09:55:37;;;;;;;7.65;3.63;;;-0.20;99.90;;;;;;5093831;28;20281;-85
2023/12/23 09:58:05;;;;;;;7.90;3.83;;;-0.20;99.90;;;;;;5059175;28;20577;-84
2023/12/23 10:00:33;;;;;;;6.65;4.47;;;-0.20;99.90;;;;;;5068694;28;20229;-85
2023/12/23 10:03:05;;;;;;;7.82;3.33;;;-0.20;99.90;;;;;;5058038;28;20189;-84
2023/12/23 10:05:37;;;;;;;7.70;3.85;;;-0.10;99.90;;;;;;5058977;28;20724;-82
2023/12/23 10:08:05;;;;;;;8.35;4.07;;;-0.10;99.90;;;;;;5053848;28;20201;-85
2023/12/23 10:10:33;;;;;;;7.25;3.15;;;-0.10;99.90;;;;;;5063230;28;20201;-84
2023/12/23 10:13:00;;;;;;;6.90;3.50;;;-0.20;99.90;;;;;;5065272;28;20598;-85
2023/12/23 10:15:29;;;;;;;4.85;3.22;;;-0.20;99.90;;;;;;5058678;28;20191;-84
2023/12/23 10:17:58;;;;;;;5.03;2.90;;;-0.20;99.90;;;;;;5068425;28;20235;-86
2023/12/23 10:20:26;;;;;;;5.63;3.03;;;-0.20;99.90;;;;;;5069584;28;20709;-85
2023/12/23 10:22:54;;;;;;;6.10;3.03;;;-0.20;99.90;;;;;;5066080;28;20192;-85
2023/12/23 10:25:21;;;;;;;7.30;3.17;;;-0.20;99.90;;;;;;5065600;28;20204;-84
2023/12/23 10:27:54;;;;;;;7.53;3.17;;;-0.20;99.90;;;;;;5080692;28;20279;-84
2023/12/23 10:30:25;;;;;;;7.63;3.38;;;-0.10;99.90;;;;;;5049419;28;20253;-85
2023/12/23 10:32:55;;;;;;;5.53;2.67;;;-0.10;99.90;;;;;;5063201;28;20226;-84
2023/12/23 10:35:28;;;;;;;5.05;2.67;;;-0.10;99.90;;;;;;5061322;28;20243;-84
2023/12/23 10:38:02;;;;;;;4.60;2.72;;;-0.10;99.90;;;;;;5057878;28;20192;-84
2023/12/23 10:40:29;;;;;;;6.00;2.38;;;-0.20;99.90;;;;;;5061309;28;20215;-84
2023/12/23 10:43:00;;;;;;;5.88;2.70;;;-0.20;99.90;;;;;;5056567;28;20303;-85
2023/12/23 10:45:27;;;;;;;6.10;3.35;;;-0.20;99.90;;;;;;5061952;28;20650;-84
2023/12/23 10:47:57;;;;;;;6.25;2.65;;;-0.10;99.90;;;;;;5056231;28;20612;-85
2023/12/23 10:50:26;;;;;;;5.82;2.67;;;-0.10;99.90;;;;;;5057756;28;20186;-85
2023/12/23 10:52:53;;;;;;;7.00;2.83;;;-0.10;99.90;;;;;;5063666;28;20188;-84
2023/12/23 10:55:25;;;;;;;7.60;2.90;;;-0.10;99.90;;;;;;5058845;28;20197;-85
2023/12/23 10:57:55;;;;;;;5.07;2.50;;;-0.10;99.90;;;;;;5067771;28;20250;-84
2023/12/23 11:00:22;;;;;;;6.40;2.80;;;0.00;99.90;;;;;;5050329;28;20209;-84
2023/12/23 11:02:54;;;;;;;5.60;2.60;;;0.00;99.90;;;;;;5051856;28;20200;-84
2023/12/23 11:05:22;;;;;;;6.30;2.47;;;0.00;99.90;;;;;;5058868;28;20597;-86
2023/12/23 11:07:53;;;;;;;5.55;2.58;;;0.00;99.90;;;;;;5058766;28;20240;-86
2023/12/23 11:10:31;;;;;;;5.75;2.40;;;0.10;99.90;;;;;;5057843;28;20195;-85
2023/12/23 11:12:59;;;;;;;4.45;2.15;;;0.00;99.90;;;;;;5037649;28;20192;-85
2023/12/23 11:15:28;;;;;;;4.30;2.22;;;0.00;99.90;;;;;;5059996;28;20667;-86
2023/12/23 11:17:58;;;;;;;2.83;1.98;;;0.00;99.90;;;;;;5063610;28;20275;-85
2023/12/23 11:20:34;;;;;;;3.25;1.88;;;0.00;99.90;;;;;;5046728;28;20246;-86
2023/12/23 11:23:31;;;;;;;2.70;1.75;;;0.00;99.90;;;;;;5055245;28;20193;-85
2023/12/23 11:26:02;;;;;;;3.08;1.90;;;0.00;99.90;;;;;;5068422;28;20200;-87
2023/12/23 11:28:33;;;;;;;5.10;2.08;;;0.10;99.90;;;;;;5068680;28;20197;-86
2023/12/23 11:31:03;;;;;;;5.30;2.20;;;0.10;99.90;;;;;;5092006;28;20746;-88
2023/12/23 11:33:37;;;;;;;4.47;2.63;;;0.00;99.90;;;;;;5066179;28;20572;-88
2023/12/23 11:36:06;;;;;;;3.95;2.53;;;0.10;99.90;;;;;;5053730;28;20877;-88
2023/12/23 11:38:50;;;;;;;4.50;2.28;;;0.10;99.90;;;;;;5070207;28;20309;-87
2023/12/23 11:41:20;;;;;;;4.43;2.83;;;0.10;99.90;;;;;;5071811;28;20366;-88
2023/12/23 11:43:51;;;;;;;4.55;2.80;;;0.10;99.90;;;;;;5050210;28;20889;-87
2023/12/23 11:46:22;;;;;;;6.63;3.00;;;0.10;99.90;;;;;;5066960;28;20180;-86
2023/12/23 11:48:50;;;;;;;5.18;3.20;;;0.10;99.90;;;;;;5065388;28;20691;-87
2023/12/23 11:51:18;;;;;;;5.38;3.28;;;0.10;99.90;;;;;;5051120;28;20806;-88
2023/12/23 11:53:46;;;;;;;4.82;2.88;;;0.00;99.90;;;;;;5050430;28;20256;-86
2023/12/23 11:56:19;;;;;;;5.75;2.78;;;0.00;99.90;;;;;;5050109;28;20185;-87
2023/12/23 11:58:47;;;;;;;5.70;3.22;;;0.00;99.90;;;;;;5063732;28;20185;-88
2023/12/23 12:01:18;;;;;;;4.97;2.85;;;0.10;99.90;;;;;;5049261;28;20527;-86
2023/12/23 12:03:49;;;;;;;5.55;2.97;;;0.00;99.90;;;;;;5051257;28;20174;-87
2023/12/23 12:06:19;;;;;;;6.88;3.17;;;0.00;99.90;;;;;;5069353;28;20195;-87
2023/12/23 12:08:47;;;;;;;4.57;2.40;;;0.10;99.90;;;;;;5053411;28;20263;-87
2023/12/23 12:11:17;;;;;;;4.82;2.20;;;0.10;99.90;;;;;;5069827;28;20268;-87
2023/12/23 12:13:47;;;;;;;4.22;2.65;;;0.00;99.90;;;;;;5060353;28;20276;-87
2023/12/23 12:16:16;;;;;;;3.42;2.10;;;0.10;99.90;;;;;;5070884;28;20187;-86
2023/12/23 12:18:46;;;;;;;5.22;2.60;;;0.00;99.90;;;;;;5070955;28;20558;-85
2023/12/23 12:21:17;;;;;;;5.65;2.88;;;0.10;99.90;;;;;;5068553;28;20204;-86
2023/12/23 12:23:46;;;;;;;4.00;2.60;;;0.10;99.90;;;;;;5063140;28;20217;-85
2023/12/23 12:26:15;;;;;;;3.90;2.45;;;0.10;99.90;;;;;;5052162;28;20213;-88
2023/12/23 12:28:44;;;;;;;4.63;2.47;;;0.10;99.90;;;;;;5051606;28;20292;-88
2023/12/23 12:31:15;;;;;;;5.82;2.00;;;0.10;99.90;;;;;;5062556;28;20200;-86
2023/12/23 12:33:45;;;;;;;3.83;2.17;;;0.10;99.90;;;;;;5044332;28;20570;-88
2023/12/23 12:36:15;;;;;;;3.13;1.90;;;0.10;99.90;;;;;;5061292;28;20540;-85
2023/12/23 12:38:44;;;;;;;4.03;2.05;;;0.10;99.90;;;;;;5069548;28;20244;-86
2023/12/23 12:41:12;;;;;;;3.65;1.88;;;0.00;99.90;;;;;;5069618;28;20193;-86
2023/12/23 12:43:41;;;;;;;3.70;1.85;;;0.10;99.90;;;;;;5069007;28;20195;-86
2023/12/23 12:46:11;;;;;;;3.60;1.83;;;0.10;99.90;;;;;;5070437;28;20184;-86
2023/12/23 12:48:38;;;;;;;4.68;1.67;;;0.10;99.90;;;;;;5070867;28;20266;-88